Time;durP1;ratioP1;P1;durP2;ratioP2;P2;SDS_P1;SDS_P2;PMS_P1;PMS_P2;Temp;Humidity;BMP_temperature;BMP_pressure;BME280_temperature;BME280_humidity;BME280_pressure;Samples;Min_cycle;Max_cycle;Signal;HPM_P1;HPM_P2
2023/07/24 00:01:28;;;;;;;3.05;1.50;;;;;;;23.08;56.93;100414.28;4996980;28;20093;-66
2023/07/24 00:03:56;;;;;;;4.28;1.80;;;;;;;23.06;57.40;100408.28;4996562;28;20378;-67
2023/07/24 00:06:21;;;;;;;3.10;1.60;;;;;;;23.06;57.40;100402.97;4996547;28;20121;-67
2023/07/24 00:08:46;;;;;;;3.70;1.80;;;;;;;23.07;57.05;100412.63;4997231;28;20125;-69
2023/07/24 00:11:12;;;;;;;2.95;1.40;;;;;;;23.05;57.41;100409.28;4997135;28;20030;-66
2023/07/24 00:13:37;;;;;;;3.22;1.58;;;;;;;23.05;57.26;100410.13;4997233;28;20058;-68
2023/07/24 00:16:08;;;;;;;3.45;1.63;;;;;;;23.03;57.29;100398.81;4996694;28;20030;-67
2023/07/24 00:18:34;;;;;;;4.70;2.08;;;;;;;23.06;56.96;100397.66;4997210;28;20045;-66
2023/07/24 00:20:59;;;;;;;3.10;1.60;;;;;;;23.06;57.26;100400.31;4997275;28;20030;-66
2023/07/24 00:23:25;;;;;;;3.13;1.52;;;;;;;23.05;56.88;100398.63;5028070;28;20100;-67
2023/07/24 00:25:50;;;;;;;2.78;1.38;;;;;;;23.06;57.17;100397.66;4996529;28;20038;-67
2023/07/24 00:28:15;;;;;;;3.67;1.65;;;;;;;23.05;57.41;100386.19;4997181;28;20057;-66
2023/07/24 00:30:42;;;;;;;3.30;1.60;;;;;;;23.05;57.20;100377.38;4997035;28;20105;-67
2023/07/24 00:33:07;;;;;;;3.10;1.60;;;;;;;23.04;57.22;100376.56;4996219;28;20030;-68
2023/07/24 00:35:33;;;;;;;3.30;1.55;;;;;;;23.04;56.94;100376.56;4996514;28;20076;-67
2023/07/24 00:37:58;;;;;;;3.72;1.75;;;;;;;23.03;57.27;100366.91;4996004;28;20025;-68
2023/07/24 00:40:23;;;;;;;3.72;1.75;;;;;;;23.05;57.42;100369.41;4995761;28;20037;-68
2023/07/24 00:42:49;;;;;;;3.35;1.58;;;;;;;23.04;57.41;100367.75;4995683;28;20977;-68
2023/07/24 00:45:14;;;;;;;3.30;1.42;;;;;;;23.04;57.13;100367.75;4995345;28;20037;-68
2023/07/24 00:47:41;;;;;;;3.08;1.42;;;;;;;23.01;56.95;100366.25;4994607;28;20042;-67
2023/07/24 00:50:08;;;;;;;3.17;1.60;;;;;;;23.02;57.03;100362.63;4996406;28;20061;-66
2023/07/24 00:52:33;;;;;;;3.10;1.60;;;;;;;23.03;57.30;100363.44;4996996;28;20026;-68
2023/07/24 00:54:59;;;;;;;4.25;1.63;;;;;;;23.01;57.16;100364.44;4996853;28;20030;-67
2023/07/24 00:57:24;;;;;;;3.60;1.55;;;;;;;23.03;57.30;100356.28;4996579;28;20084;-68
2023/07/24 00:59:50;;;;;;;3.63;1.70;;;;;;;23.01;57.11;100356.44;4996887;28;20026;-68
2023/07/24 01:02:15;;;;;;;2.85;1.52;;;;;;;23.04;57.25;100359.78;4996405;28;20099;-68
2023/07/24 01:04:41;;;;;;;3.05;1.65;;;;;;;23.02;56.98;100352.00;4996464;28;20757;-67
2023/07/24 01:07:06;;;;;;;3.45;1.60;;;;;;;23.03;57.15;100344.84;4996914;28;20474;-68
2023/07/24 01:09:31;;;;;;;4.65;1.70;;;;;;;23.03;56.96;100345.66;5000353;28;20546;-66
2023/07/24 01:12:02;;;;;;;3.50;1.80;;;;;;;23.01;57.15;100345.00;5000707;28;20522;-68
2023/07/24 01:14:46;;;;;;;3.20;1.60;;;;;;;23.00;56.98;100338.88;5000061;28;20391;-68
2023/07/24 01:17:16;;;;;;;3.33;1.57;;;;;;;23.01;57.04;100335.19;5000984;28;20029;-67
2023/07/24 01:19:52;;;;;;;3.38;1.50;;;;;;;23.00;57.00;100322.94;5000456;28;20830;-66
2023/07/24 01:22:29;;;;;;;3.38;1.77;;;;;;;23.00;56.98;100328.25;4999438;28;20025;-67
2023/07/24 01:25:25;;;;;;;3.03;1.60;;;;;;;23.01;57.18;100334.38;4999111;28;20052;-67
2023/07/24 01:27:50;;;;;;;5.72;1.90;;;;;;;23.01;57.21;100331.72;4999886;28;20463;-67
2023/07/24 01:30:18;;;;;;;3.88;1.77;;;;;;;22.96;56.84;100326.09;4999660;28;20032;-67
2023/07/24 01:32:44;;;;;;;3.65;1.73;;;;;;;23.00;57.27;100328.25;4999708;28;20386;-66
2023/07/24 01:35:09;;;;;;;4.60;1.80;;;;;;;22.98;57.19;100327.56;4999048;28;20034;-67
2023/07/24 01:37:37;;;;;;;5.40;2.10;;;;;;;22.99;56.83;100331.88;4999594;28;20026;-67
2023/07/24 01:40:03;;;;;;;3.45;1.48;;;;;;;22.99;56.92;100323.09;4990754;28;20077;-68
2023/07/24 01:42:29;;;;;;;4.40;1.80;;;;;;;22.98;57.41;100321.44;5031524;28;20030;-66
2023/07/24 01:44:55;;;;;;;4.03;2.05;;;;;;;23.00;57.16;100306.13;5000387;28;20034;-65
2023/07/24 01:47:21;;;;;;;4.43;2.08;;;;;;;23.00;57.00;100311.44;5000055;28;20034;-65
2023/07/24 01:49:47;;;;;;;3.97;2.00;;;;;;;22.99;57.32;100309.81;5000106;28;20471;-67
2023/07/24 01:52:12;;;;;;;3.22;1.73;;;;;;;22.99;57.25;100301.84;4999473;28;20102;-68
2023/07/24 01:54:37;;;;;;;4.53;2.10;;;;;;;22.97;56.99;100296.69;5000167;28;20065;-65
2023/07/24 01:57:03;;;;;;;3.65;1.83;;;;;;;22.99;57.19;100299.19;4998572;28;20026;-66
2023/07/24 01:59:28;;;;;;;3.85;1.88;;;;;;;22.99;57.14;100289.38;4999406;28;20091;-66
2023/07/24 02:01:54;;;;;;;3.67;1.90;;;;;;;22.98;57.24;100287.69;4999490;28;20391;-68
2023/07/24 02:04:22;;;;;;;4.75;2.00;;;;;;;22.96;57.21;100284.41;4999921;28;20268;-65
2023/07/24 02:06:50;;;;;;;3.90;1.83;;;;;;;22.98;57.40;100292.19;4999213;28;20064;-67
2023/07/24 02:09:18;;;;;;;4.10;2.08;;;;;;;22.98;57.18;100281.56;4997976;28;20038;-67
2023/07/24 02:11:43;;;;;;;4.53;1.88;;;;;;;22.97;57.31;100267.47;4998636;28;20045;-67
2023/07/24 02:14:08;;;;;;;3.53;2.00;;;;;;;22.97;57.02;100275.44;4998256;28;20080;-67
2023/07/24 02:16:35;;;;;;;3.40;1.80;;;;;;;22.98;56.91;100270.94;4998627;28;20038;-68
2023/07/24 02:19:00;;;;;;;4.10;1.90;;;;;;;22.98;57.18;100273.59;4998428;28;20030;-67
2023/07/24 02:21:25;;;;;;;3.17;1.75;;;;;;;22.96;57.22;100265.78;4998160;28;20022;-67
2023/07/24 02:23:51;;;;;;;4.25;2.00;;;;;;;22.98;56.92;100270.94;4999703;28;20026;-67
2023/07/24 02:26:16;;;;;;;4.13;2.10;;;;;;;22.98;57.09;100268.28;4998913;28;20046;-66
2023/07/24 02:28:41;;;;;;;4.28;2.00;;;;;;;22.98;56.75;100268.28;4999235;28;20116;-67
2023/07/24 02:31:06;;;;;;;3.97;1.75;;;;;;;22.96;57.23;100267.63;4999158;28;20085;-69
2023/07/24 02:33:32;;;;;;;3.70;1.90;;;;;;;22.96;57.35;100268.44;4999239;28;20029;-67
2023/07/24 02:35:57;;;;;;;3.83;2.03;;;;;;;22.97;57.20;100266.63;4998474;28;20061;-67
2023/07/24 02:38:22;;;;;;;4.20;1.80;;;;;;;22.97;57.13;100280.75;4999547;28;20371;-67
2023/07/24 02:40:48;;;;;;;7.22;2.00;;;;;;;22.95;57.19;100281.91;4999061;28;20068;-67
2023/07/24 02:43:15;;;;;;;4.05;1.80;;;;;;;22.96;56.98;100289.72;4998806;28;20076;-68
2023/07/24 02:45:40;;;;;;;3.17;1.83;;;;;;;22.97;57.27;100277.25;4998744;28;20034;-67
2023/07/24 02:48:05;;;;;;;3.28;1.70;;;;;;;22.97;57.27;100271.94;4997185;28;20050;-67
2023/07/24 02:50:32;;;;;;;4.50;1.83;;;;;;;22.94;56.92;100269.59;4998123;28;20030;-66
2023/07/24 02:52:58;;;;;;;3.47;1.90;;;;;;;22.96;56.91;100263.13;4999491;28;20034;-66
2023/07/24 02:55:23;;;;;;;3.38;1.73;;;;;;;22.97;56.95;100263.97;4999286;28;20037;-67
2023/07/24 02:57:49;;;;;;;3.23;1.63;;;;;;;22.95;57.27;100258.00;4999008;28;20040;-68
2023/07/24 03:00:14;;;;;;;3.70;1.75;;;;;;;22.96;57.20;100249.84;4998359;28;20267;-67
2023/07/24 03:02:39;;;;;;;4.15;2.17;;;;;;;22.93;57.05;100268.78;4998437;28;20090;-69
2023/07/24 03:05:05;;;;;;;4.00;1.80;;;;;;;22.93;57.16;100270.63;4998681;28;20471;-67
2023/07/24 03:07:31;;;;;;;3.40;1.67;;;;;;;22.96;57.16;100259.66;4998406;28;20026;-67
2023/07/24 03:09:57;;;;;;;3.95;1.98;;;;;;;22.95;56.79;100248.19;4998659;28;20536;-69
2023/07/24 03:12:22;;;;;;;3.47;1.85;;;;;;;22.96;56.86;100243.72;4998264;28;20037;-68
2023/07/24 03:14:47;;;;;;;3.40;1.70;;;;;;;22.94;56.83;100238.56;4999010;28;20041;-67
2023/07/24 03:17:13;;;;;;;3.72;1.75;;;;;;;22.95;56.69;100247.38;4998256;28;20061;-69
2023/07/24 03:19:38;;;;;;;3.97;1.90;;;;;;;22.96;56.69;100265.78;4997845;28;20030;-67
2023/07/24 03:22:03;;;;;;;3.50;1.90;;;;;;;22.94;57.11;100272.25;4997850;28;20483;-68
2023/07/24 03:24:29;;;;;;;4.10;1.90;;;;;;;22.93;57.11;100263.47;4998400;28;20054;-67
2023/07/24 03:26:54;;;;;;;3.60;1.73;;;;;;;22.94;57.04;100262.50;4997273;28;20620;-68
2023/07/24 03:29:19;;;;;;;3.65;2.03;;;;;;;22.94;56.74;100254.53;4997272;28;20128;-67
2023/07/24 03:31:44;;;;;;;4.67;1.93;;;;;;;22.94;56.63;100246.53;4997398;28;20080;-68
2023/07/24 03:34:10;;;;;;;3.75;1.90;;;;;;;22.94;56.73;100243.88;4998329;28;20756;-67
2023/07/24 03:36:35;;;;;;;3.60;1.80;;;;;;;22.94;56.96;100243.03;4998504;28;20065;-68
2023/07/24 03:39:01;;;;;;;3.63;1.70;;;;;;;22.94;56.43;100243.03;4997875;28;20030;-68
2023/07/24 03:41:26;;;;;;;3.55;1.70;;;;;;;22.92;56.49;100232.63;4997913;28;20360;-68
2023/07/24 03:43:51;;;;;;;3.78;1.88;;;;;;;22.93;56.18;100233.44;4998212;28;20132;-67
2023/07/24 03:46:17;;;;;;;3.70;1.80;;;;;;;22.93;56.56;100236.91;4998132;28;20089;-67
2023/07/24 03:48:42;;;;;;;4.45;1.80;;;;;;;22.94;56.58;100243.03;4997391;28;20476;-66
2023/07/24 03:51:08;;;;;;;3.55;1.95;;;;;;;22.88;56.85;100228.63;4997746;28;20060;-67
2023/07/24 03:53:33;;;;;;;4.43;1.80;;;;;;;22.92;56.79;100234.41;4997884;28;20022;-67
2023/07/24 03:55:58;;;;;;;3.58;1.70;;;;;;;22.92;56.38;100229.94;4998150;28;20022;-67
2023/07/24 03:58:24;;;;;;;4.40;1.85;;;;;;;22.91;56.25;100230.94;4997552;28;20026;-67
2023/07/24 04:00:49;;;;;;;3.55;1.83;;;;;;;22.90;56.25;100234.59;4997957;28;20030;-67
2023/07/24 04:03:15;;;;;;;3.38;1.70;;;;;;;22.92;56.53;100240.59;4997597;28;20027;-67
2023/07/24 04:05:40;;;;;;;4.32;1.90;;;;;;;22.92;56.44;100242.38;4997017;28;20029;-67
2023/07/24 04:08:06;;;;;;;3.88;1.73;;;;;;;22.91;56.57;100246.88;4997271;28;20057;-68
2023/07/24 04:10:31;;;;;;;3.33;1.65;;;;;;;22.91;56.12;100254.84;4997823;28;20026;-67
2023/07/24 04:12:57;;;;;;;3.40;1.70;;;;;;;22.92;56.68;100261.84;4997567;28;21397;-67
2023/07/24 04:15:22;;;;;;;3.38;1.70;;;;;;;22.91;56.80;100262.81;4997071;28;20030;-70
2023/07/24 04:17:48;;;;;;;3.55;1.75;;;;;;;22.91;56.24;100270.78;4997244;28;20046;-68
2023/07/24 04:20:13;;;;;;;3.08;1.63;;;;;;;22.90;56.53;100263.00;4997361;28;20062;-67
2023/07/24 04:22:38;;;;;;;4.13;1.90;;;;;;;22.91;56.25;100259.34;4997162;28;20426;-68
2023/07/24 04:25:04;;;;;;;3.08;1.50;;;;;;;22.91;56.19;100257.50;4997170;28;20086;-67
2023/07/24 04:27:29;;;;;;;3.90;1.80;;;;;;;22.92;56.37;100261.00;4997451;28;20069;-69
2023/07/24 04:29:55;;;;;;;4.07;1.75;;;;;;;22.91;56.36;100251.38;4996988;28;20032;-68
2023/07/24 04:32:20;;;;;;;3.65;1.88;;;;;;;22.92;56.65;100255.69;4996543;28;20037;-68
2023/07/24 04:34:45;;;;;;;4.07;1.90;;;;;;;22.91;56.42;100264.66;4996756;28;20038;-67
2023/07/24 04:37:11;;;;;;;4.25;2.00;;;;;;;22.90;56.45;100269.13;4996691;28;20464;-68
2023/07/24 04:39:38;;;;;;;4.75;1.60;;;;;;;22.88;56.72;100265.00;4997035;28;20048;-68
2023/07/24 04:42:04;;;;;;;4.05;2.05;;;;;;;22.90;56.40;100268.31;4996353;28;20380;-67
2023/07/24 04:44:29;;;;;;;3.30;1.63;;;;;;;22.90;56.63;100266.47;4996930;28;20018;-65
2023/07/24 04:46:55;;;;;;;3.85;1.80;;;;;;;22.90;56.72;100265.66;4994264;28;20022;-65
2023/07/24 04:49:21;;;;;;;4.63;1.85;;;;;;;22.89;56.39;100263.97;4987116;28;20041;-66
2023/07/24 04:51:46;;;;;;;3.90;2.05;;;;;;;22.90;56.64;100266.47;4996997;28;20030;-67
2023/07/24 04:54:11;;;;;;;3.80;1.97;;;;;;;22.89;56.65;100261.31;4997156;28;20371;-66
2023/07/24 04:56:37;;;;;;;4.00;1.70;;;;;;;22.90;56.58;100268.31;5027949;28;20286;-65
2023/07/24 04:59:02;;;;;;;3.53;1.75;;;;;;;22.88;56.54;100262.34;4996942;28;20023;-66
2023/07/24 05:01:27;;;;;;;3.40;1.60;;;;;;;22.90;56.39;100257.69;4997112;28;20426;-65
2023/07/24 05:03:53;;;;;;;2.85;1.52;;;;;;;22.90;56.34;100261.16;4996007;28;20030;-66
2023/07/24 05:06:18;;;;;;;3.75;1.75;;;;;;;22.88;56.19;100255.19;4997051;28;20042;-68
2023/07/24 05:08:43;;;;;;;4.35;1.70;;;;;;;22.88;55.96;100263.16;5028366;28;20042;-66
2023/07/24 05:11:09;;;;;;;4.15;1.73;;;;;;;22.89;56.04;100269.31;4996828;28;20041;-68
2023/07/24 05:13:34;;;;;;;3.40;1.80;;;;;;;22.89;56.35;100263.97;4996513;28;20076;-66
2023/07/24 05:15:59;;;;;;;3.45;1.83;;;;;;;22.89;56.35;100274.63;4987885;28;20031;-65
2023/07/24 05:18:24;;;;;;;4.60;1.67;;;;;;;22.87;56.16;100271.31;4996343;28;20039;-67
2023/07/24 05:20:53;;;;;;;4.32;1.90;;;;;;;22.89;56.25;100274.63;4997275;28;20069;-67
2023/07/24 05:23:19;;;;;;;3.50;1.70;;;;;;;22.88;56.29;100280.94;4996061;28;20074;-68
2023/07/24 05:25:44;;;;;;;3.42;1.70;;;;;;;22.88;55.89;100287.06;4996057;28;20059;-69
2023/07/24 05:28:09;;;;;;;3.70;1.95;;;;;;;22.87;56.39;100280.09;4996115;28;20692;-68
2023/07/24 05:30:35;;;;;;;3.97;2.13;;;;;;;22.87;56.16;100279.28;4995994;28;20421;-67
2023/07/24 05:33:01;;;;;;;3.30;1.75;;;;;;;22.87;56.54;100279.28;4995216;28;20466;-67
2023/07/24 05:35:26;;;;;;;4.10;1.90;;;;;;;22.86;56.46;100277.59;4996786;28;20038;-67
2023/07/24 05:37:51;;;;;;;3.50;1.73;;;;;;;22.87;56.09;100285.41;4996208;28;20097;-67
2023/07/24 05:40:17;;;;;;;3.60;1.98;;;;;;;22.88;56.13;100288.91;4996215;28;20045;-67
2023/07/24 05:42:43;;;;;;;3.50;1.80;;;;;;;22.86;56.30;100275.78;4996538;28;20066;-67
2023/07/24 05:45:10;;;;;;;3.10;1.73;;;;;;;22.86;56.10;100283.78;4996480;28;20030;-67
2023/07/24 05:47:36;;;;;;;3.67;1.70;;;;;;;22.87;56.26;100284.59;4996064;28;20113;-67
2023/07/24 05:50:01;;;;;;;3.42;1.70;;;;;;;22.85;55.88;100284.75;4995719;28;20160;-66
2023/07/24 05:52:26;;;;;;;3.60;1.70;;;;;;;22.86;55.88;100293.53;4995212;28;20080;-67
2023/07/24 05:54:52;;;;;;;3.47;1.73;;;;;;;22.87;56.03;100303.19;4998913;28;20065;-67
2023/07/24 05:57:17;;;;;;;3.15;1.70;;;;;;;22.85;55.81;100302.53;4999856;28;20033;-67
2023/07/24 05:59:42;;;;;;;3.30;1.90;;;;;;;22.86;56.21;100296.19;4999982;28;20037;-67
2023/07/24 06:02:09;;;;;;;3.88;1.98;;;;;;;22.85;56.15;100295.38;4997864;28;20884;-66
2023/07/24 06:04:34;;;;;;;4.85;1.95;;;;;;;22.87;55.93;100297.88;4999468;28;20030;-65
2023/07/24 06:06:59;;;;;;;3.83;2.00;;;;;;;22.89;56.52;100296.72;4997986;28;20044;-66
2023/07/24 06:09:25;;;;;;;3.80;2.17;;;;;;;22.90;56.47;100292.22;4999184;28;20046;-66
2023/07/24 06:11:50;;;;;;;4.32;2.38;;;;;;;22.90;56.63;100308.97;5000465;28;20467;-65
2023/07/24 06:14:15;;;;;;;5.28;2.15;;;;;;;22.88;56.34;100296.88;4999205;28;20080;-65
2023/07/24 06:16:40;;;;;;;3.58;2.00;;;;;;;22.89;56.74;100309.16;4998906;28;20080;-66
2023/07/24 06:19:06;;;;;;;4.38;2.30;;;;;;;22.88;56.66;100311.00;4999488;28;20034;-65
2023/07/24 06:21:31;;;;;;;4.95;1.90;;;;;;;22.88;56.88;100308.34;4999864;28;20062;-65
2023/07/24 06:23:56;;;;;;;4.90;2.13;;;;;;;22.88;57.09;100299.53;4999628;28;20040;-66
2023/07/24 06:26:22;;;;;;;3.97;2.20;;;;;;;22.89;56.89;100301.19;4999352;28;20180;-63
2023/07/24 06:28:47;;;;;;;15.52;2.53;;;;;;;22.89;57.03;100304.69;4999116;28;20292;-64
2023/07/24 06:31:13;;;;;;;4.50;2.20;;;;;;;22.87;57.27;100298.69;4999278;28;20042;-66
2023/07/24 06:33:38;;;;;;;3.30;1.80;;;;;;;22.89;57.06;100303.84;4999359;28;20331;-66
2023/07/24 06:36:03;;;;;;;4.50;2.03;;;;;;;22.88;57.11;100302.19;4999063;28;20034;-67
2023/07/24 06:38:29;;;;;;;3.67;1.90;;;;;;;22.86;57.48;100302.38;4998249;28;20267;-66
2023/07/24 06:40:54;;;;;;;4.78;2.25;;;;;;;22.85;57.02;100303.34;4998520;28;20026;-65
2023/07/24 06:43:19;;;;;;;4.13;1.80;;;;;;;22.87;57.19;100308.50;4998340;28;20025;-65
2023/07/24 06:45:45;;;;;;;3.60;2.00;;;;;;;22.89;56.96;100304.69;4998017;28;20387;-68
2023/07/24 06:48:10;;;;;;;3.90;1.88;;;;;;;22.90;56.99;100302.84;4998015;28;20032;-67
2023/07/24 06:50:35;;;;;;;4.50;2.08;;;;;;;22.89;57.31;100304.69;4997545;28;20028;-67
2023/07/24 06:53:01;;;;;;;3.75;2.00;;;;;;;22.89;56.79;100307.34;4998498;28;20048;-67
2023/07/24 06:55:26;;;;;;;4.25;2.13;;;;;;;22.94;57.15;100309.47;4995751;28;20378;-64
2023/07/24 06:57:51;;;;;;;4.07;2.25;;;;;;;22.96;57.69;100299.53;4998457;28;20447;-65
2023/07/24 07:00:17;;;;;;;3.55;1.90;;;;;;;23.00;57.58;100303.47;4998188;28;20057;-65
2023/07/24 07:02:42;;;;;;;3.83;1.73;;;;;;;23.03;57.41;100311.09;4997005;28;20026;-66
2023/07/24 07:05:08;;;;;;;5.25;2.08;;;;;;;23.01;57.65;100303.31;4997254;28;20041;-66
2023/07/24 07:07:33;;;;;;;4.07;2.00;;;;;;;23.05;57.57;100302.97;4998077;28;20076;-66
2023/07/24 07:09:58;;;;;;;4.70;2.05;;;;;;;23.05;57.59;100300.31;4997958;28;20076;-65
2023/07/24 07:12:24;;;;;;;4.95;2.17;;;;;;;23.07;57.42;100311.63;4998364;28;20065;-64
2023/07/24 07:14:49;;;;;;;4.57;2.30;;;;;;;23.07;57.42;100301.00;4998034;28;20025;-68
2023/07/24 07:17:14;;;;;;;3.95;1.73;;;;;;;23.09;57.70;100307.00;4997824;28;20062;-67
2023/07/24 07:19:40;;;;;;;4.28;2.13;;;;;;;23.10;57.18;100300.69;4997523;28;20056;-66
2023/07/24 07:22:06;;;;;;;5.70;2.30;;;;;;;23.11;57.29;100297.00;4997995;28;20058;-66
2023/07/24 07:24:31;;;;;;;4.22;2.13;;;;;;;23.11;57.06;100292.50;4997931;28;20050;-65
2023/07/24 07:26:56;;;;;;;4.55;1.98;;;;;;;23.12;57.51;100294.19;4997978;28;20042;-67
2023/07/24 07:29:22;;;;;;;4.10;2.13;;;;;;;23.14;56.82;100296.66;5028383;28;20078;-66
2023/07/24 07:31:47;;;;;;;4.95;2.05;;;;;;;23.15;57.08;100295.69;4997295;28;20457;-64
2023/07/24 07:34:12;;;;;;;4.03;2.10;;;;;;;23.15;57.04;100299.16;4997310;28;20030;-65
2023/07/24 07:36:37;;;;;;;3.90;2.08;;;;;;;23.18;56.87;100304.13;4997722;28;20053;-65
2023/07/24 07:39:03;;;;;;;3.90;2.08;;;;;;;23.20;57.24;100303.16;4997308;28;20089;-65
2023/07/24 07:41:28;;;;;;;4.75;1.95;;;;;;;23.20;57.11;100293.34;4997353;28;20041;-64
2023/07/24 07:43:54;;;;;;;3.40;1.90;;;;;;;23.21;57.05;100295.00;4997308;28;20117;-65
2023/07/24 07:46:20;;;;;;;4.22;2.00;;;;;;;23.20;56.75;100290.66;4996747;28;20399;-66
2023/07/24 07:48:46;;;;;;;5.22;2.30;;;;;;;23.21;56.92;100286.19;4997428;28;20030;-65
2023/07/24 07:51:12;;;;;;;4.15;1.98;;;;;;;23.23;57.07;100284.19;4997587;28;20411;-65
2023/07/24 07:53:38;;;;;;;4.35;2.20;;;;;;;23.23;57.15;100286.84;4996457;28;20073;-65
2023/07/24 07:56:04;;;;;;;6.60;2.22;;;;;;;23.23;56.60;100294.81;4997358;28;20507;-66
2023/07/24 07:58:29;;;;;;;3.58;1.90;;;;;;;23.22;57.20;100280.69;5028748;28;20122;-65
2023/07/24 08:00:55;;;;;;;4.88;2.10;;;;;;;23.22;57.17;100293.97;4996295;28;20129;-65
2023/07/24 08:03:20;;;;;;;3.50;1.90;;;;;;;23.24;56.98;100299.97;4996043;28;20511;-65
2023/07/24 08:05:46;;;;;;;4.15;2.17;;;;;;;23.22;56.98;100293.16;4996450;28;20521;-65
2023/07/24 08:08:11;;;;;;;4.85;2.10;;;;;;;23.23;57.29;100290.34;4997028;28;20121;-66
2023/07/24 08:10:38;;;;;;;3.60;2.00;;;;;;;23.26;57.18;100297.97;4995955;28;20052;-64
2023/07/24 08:13:03;;;;;;;4.45;2.08;;;;;;;23.27;56.60;100288.16;4995332;28;20453;-65
2023/07/24 08:15:28;;;;;;;3.90;2.30;;;;;;;23.29;56.63;100294.97;4995720;28;20133;-66
2023/07/24 08:17:54;;;;;;;5.05;2.40;;;;;;;23.29;57.01;100287.00;4996415;28;20117;-65
2023/07/24 08:20:19;;;;;;;4.07;2.20;;;;;;;23.28;56.65;100280.00;4996712;28;20030;-64
2023/07/24 08:22:44;;;;;;;4.32;2.20;;;;;;;23.30;56.75;100283.31;4996688;28;20026;-65
2023/07/24 08:25:10;;;;;;;4.70;2.30;;;;;;;23.30;56.70;100283.31;4996877;28;20475;-64
2023/07/24 08:27:35;;;;;;;4.82;2.30;;;;;;;23.31;56.63;100276.19;4997629;28;20088;-64
2023/07/24 08:30:00;;;;;;;4.25;2.28;;;;;;;23.31;56.87;100278.84;4994126;28;20025;-64
2023/07/24 08:32:26;;;;;;;5.32;2.20;;;;;;;23.33;56.62;100290.13;4997194;28;20030;-63
2023/07/24 08:34:51;;;;;;;4.57;2.33;;;;;;;23.32;56.62;100283.97;4991946;28;20030;-64
2023/07/24 08:37:16;;;;;;;4.83;2.30;;;;;;;23.32;57.14;100280.47;5010500;28;20056;-63
2023/07/24 08:39:42;;;;;;;4.38;2.10;;;;;;;23.35;56.68;100293.44;4986978;28;20296;-64
2023/07/24 08:42:11;;;;;;;4.07;2.30;;;;;;;23.35;57.00;100286.31;4987105;28;20030;-63
2023/07/24 08:44:37;;;;;;;4.68;2.47;;;;;;;23.37;57.03;100299.44;4986481;28;20029;-64
2023/07/24 08:47:04;;;;;;;6.00;2.17;;;;;;;23.39;56.90;100299.25;4986744;28;20064;-63
2023/07/24 08:49:29;;;;;;;4.95;2.30;;;;;;;23.39;57.22;100291.28;4986448;28;20038;-66
2023/07/24 08:51:56;;;;;;;4.03;2.05;;;;;;;23.40;56.90;100288.44;4987019;28;20034;-65
2023/07/24 08:54:24;;;;;;;4.15;2.40;;;;;;;23.40;57.30;100284.94;4986735;28;20121;-64
2023/07/24 08:56:51;;;;;;;4.30;2.20;;;;;;;23.42;57.21;100282.97;4987609;28;20026;-64
2023/07/24 08:59:17;;;;;;;4.18;2.30;;;;;;;23.42;57.45;100281.13;4986316;28;20046;-63
2023/07/24 09:01:42;;;;;;;5.03;2.70;;;;;;;23.40;57.20;100272.50;4986955;28;20034;-63
2023/07/24 09:04:08;;;;;;;5.82;2.40;;;;;;;23.42;56.88;100277.63;4986535;28;20034;-62
2023/07/24 09:06:33;;;;;;;6.38;2.30;;;;;;;23.41;56.75;100266.16;4986654;28;20026;-64
2023/07/24 09:08:59;;;;;;;4.68;2.40;;;;;;;23.42;56.80;100261.69;4986652;28;20034;-65
2023/07/24 09:11:24;;;;;;;3.60;2.20;;;;;;;23.44;57.01;100260.50;4986792;28;20526;-67
2023/07/24 09:13:50;;;;;;;5.03;2.45;;;;;;;23.42;56.67;100246.56;4986653;28;20121;-64
2023/07/24 09:16:23;;;;;;;4.63;2.45;;;;;;;23.42;57.40;100246.56;4986930;28;21088;-66
2023/07/24 09:18:51;;;;;;;5.43;2.83;;;;;;;23.46;56.91;100242.53;4986787;28;20045;-65
2023/07/24 09:21:27;;;;;;;5.05;2.67;;;;;;;23.41;57.53;100242.22;4987145;28;20038;-66
2023/07/24 09:23:52;;;;;;;4.68;2.30;;;;;;;23.46;57.43;100239.84;4993286;28;20470;-65
2023/07/24 09:26:17;;;;;;;4.68;2.47;;;;;;;23.47;57.11;100235.41;4982097;28;20038;-65
2023/07/24 09:28:51;;;;;;;4.05;2.20;;;;;;;23.45;57.66;100234.72;4985003;28;20026;-66
2023/07/24 09:31:17;;;;;;;;;;;;;;;23.53;57.09;100234.69;4992152;28;20080;-68
2023/07/24 09:33:46;;;;;;;6.20;2.67;;;;;;;23.52;57.35;100233.84;4989638;28;19917;-67
2023/07/24 09:36:12;;;;;;;6.13;2.75;;;;;;;23.47;57.49;100214.94;4989350;28;20529;-66
2023/07/24 09:38:38;;;;;;;4.22;2.50;;;;;;;23.46;57.32;100204.47;4989414;28;20374;-67
2023/07/24 09:41:05;;;;;;;5.65;2.70;;;;;;;23.43;57.05;100203.00;4988959;28;20468;-66
2023/07/24 09:43:31;;;;;;;5.18;2.45;;;;;;;23.39;57.61;100207.00;4989047;28;20022;-65
2023/07/24 09:45:57;;;;;;;5.88;2.72;;;;;;;23.40;57.49;100210.50;4989409;28;20026;-66
2023/07/24 09:48:27;;;;;;;4.97;2.10;;;;;;;23.42;57.28;100197.88;5020302;28;20222;-68
2023/07/24 09:50:57;;;;;;;5.78;2.42;;;;;;;23.42;57.60;100188.06;4988408;28;20034;-67
2023/07/24 09:53:33;;;;;;;4.43;2.80;;;;;;;23.45;57.52;100189.50;4988591;28;20559;-65
2023/07/24 09:56:01;;;;;;;4.60;2.50;;;;;;;23.44;57.31;100174.59;4988792;28;20121;-65
2023/07/24 09:58:29;;;;;;;5.18;2.40;;;;;;;23.44;57.46;100178.06;4988987;28;20613;-68
2023/07/24 10:00:55;;;;;;;4.93;2.47;;;;;;;23.45;57.12;100185.03;4988712;28;20154;-67
2023/07/24 10:03:22;;;;;;;5.00;2.33;;;;;;;23.45;57.38;100187.69;4988697;28;20770;-64
2023/07/24 10:05:48;;;;;;;5.55;2.70;;;;;;;23.46;57.39;100196.50;5021383;28;20045;-66
2023/07/24 10:08:18;;;;;;;4.53;2.53;;;;;;;23.43;57.21;100195.03;4992306;28;20083;-65
2023/07/24 10:10:43;;;;;;;8.20;2.47;;;;;;;23.43;57.32;100197.69;4996791;28;20042;-65
2023/07/24 10:13:10;;;;;;;5.38;2.40;;;;;;;23.42;57.03;100211.16;4993315;28;20082;-66
2023/07/24 10:15:40;;;;;;;4.10;2.20;;;;;;;23.40;57.43;100207.81;4996408;28;20116;-65
2023/07/24 10:18:07;;;;;;;4.03;2.33;;;;;;;23.38;57.04;100215.97;4997957;28;20025;-64
2023/07/24 10:20:42;;;;;;;6.18;2.53;;;;;;;23.35;57.27;100208.34;4998600;28;20030;-66
2023/07/24 10:23:10;;;;;;;4.25;2.20;;;;;;;23.36;57.05;100220.66;4998185;28;20042;-65
2023/07/24 10:25:40;;;;;;;4.82;2.40;;;;;;;23.32;57.30;100228.16;4997129;28;20074;-65
2023/07/24 10:28:10;;;;;;;4.90;2.20;;;;;;;23.31;57.36;100229.16;4997087;28;20437;-64
2023/07/24 10:30:39;;;;;;;4.30;2.35;;;;;;;23.30;57.09;100224.81;4998623;28;20523;-65
2023/07/24 10:33:06;;;;;;;5.85;2.70;;;;;;;23.28;57.53;100221.50;4995806;28;20471;-66
2023/07/24 10:35:42;;;;;;;4.00;2.20;;;;;;;23.22;57.23;100216.91;4998262;28;20026;-66
2023/07/24 10:38:08;;;;;;;4.80;2.22;;;;;;;23.25;57.45;100223.69;4996035;28;20034;-65
2023/07/24 10:40:34;;;;;;;4.95;2.17;;;;;;;23.25;57.27;100219.19;4997471;28;20045;-65
2023/07/24 10:43:04;;;;;;;5.38;2.38;;;;;;;23.23;57.40;100221.22;4999278;28;20045;-64
2023/07/24 10:45:38;;;;;;;4.05;2.28;;;;;;;23.20;58.03;100229.53;4998452;28;20030;-64
2023/07/24 10:48:04;;;;;;;4.30;2.22;;;;;;;23.24;57.83;100246.81;4999071;28;20021;-65
2023/07/24 10:50:37;;;;;;;4.28;2.25;;;;;;;23.20;57.63;100245.47;4999124;28;20040;-61
2023/07/24 10:53:02;;;;;;;4.43;2.38;;;;;;;23.21;57.96;100241.84;5030865;28;20049;-65
2023/07/24 10:55:27;;;;;;;4.95;2.08;;;;;;;23.19;57.71;100230.53;4998716;28;20033;-64
2023/07/24 10:57:53;;;;;;;4.65;2.33;;;;;;;23.19;58.20;100219.88;4998829;28;20065;-66
2023/07/24 11:00:18;;;;;;;4.38;2.10;;;;;;;23.16;58.00;100229.06;4998106;28;20042;-65
2023/07/24 11:02:45;;;;;;;3.80;2.30;;;;;;;23.23;58.19;100242.47;4987864;28;20131;-67
2023/07/24 11:05:12;;;;;;;4.28;2.20;;;;;;;23.27;57.93;100245.63;4989181;28;20276;-67
2023/07/24 11:07:37;;;;;;;4.07;2.20;;;;;;;23.29;58.04;100240.94;4987875;28;20034;-66
2023/07/24 11:10:03;;;;;;;4.72;2.30;;;;;;;23.31;58.01;100239.78;4988458;28;20045;-67
2023/07/24 11:12:31;;;;;;;4.38;2.70;;;;;;;23.34;57.99;100239.44;4989326;28;20058;-66
2023/07/24 11:14:58;;;;;;;5.22;2.60;;;;;;;23.35;57.80;100245.56;4988363;28;20034;-68
2023/07/24 11:17:35;;;;;;;4.70;2.30;;;;;;;23.35;57.66;100243.75;4989163;28;20073;-67
2023/07/24 11:20:08;;;;;;;4.95;2.47;;;;;;;23.38;57.65;100247.88;4988872;28;20383;-68